sensor_id;sensor_type;location;lat;lon;timestamp;P1;durP1;ratioP1;P2;durP2;ratioP2
59207;SDS011;44977;53.132;6.408;2022-09-21T00:04:48;6.60;;;2.90;;
59207;SDS011;44977;53.132;6.408;2022-09-21T00:09:50;7.60;;;2.80;;
59207;SDS011;44977;53.132;6.408;2022-09-21T00:14:50;7.43;;;3.42;;
59207;SDS011;44977;53.132;6.408;2022-09-21T00:19:51;8.73;;;3.25;;
59207;SDS011;44977;53.132;6.408;2022-09-21T00:24:52;7.32;;;3.15;;
59207;SDS011;44977;53.132;6.408;2022-09-21T00:29:53;8.38;;;3.40;;
59207;SDS011;44977;53.132;6.408;2022-09-21T00:34:53;8.02;;;3.38;;
59207;SDS011;44977;53.132;6.408;2022-09-21T00:39:54;7.13;;;3.45;;
59207;SDS011;44977;53.132;6.408;2022-09-21T00:44:56;7.65;;;3.20;;
59207;SDS011;44977;53.132;6.408;2022-09-21T00:49:57;8.20;;;3.40;;
59207;SDS011;44977;53.132;6.408;2022-09-21T00:55:01;8.07;;;3.35;;
59207;SDS011;44977;53.132;6.408;2022-09-21T01:00:15;9.02;;;3.33;;
59207;SDS011;44977;53.132;6.408;2022-09-21T01:05:16;7.45;;;3.60;;
59207;SDS011;44977;53.132;6.408;2022-09-21T01:10:17;6.47;;;3.33;;
59207;SDS011;44977;53.132;6.408;2022-09-21T01:15:31;7.10;;;3.30;;
59207;SDS011;44977;53.132;6.408;2022-09-21T01:21:05;8.40;;;3.13;;
59207;SDS011;44977;53.132;6.408;2022-09-21T01:32:05;6.53;;;3.30;;
59207;SDS011;44977;53.132;6.408;2022-09-21T01:37:11;8.68;;;3.38;;
59207;SDS011;44977;53.132;6.408;2022-09-21T01:42:15;7.40;;;3.38;;
59207;SDS011;44977;53.132;6.408;2022-09-21T01:47:18;7.72;;;3.78;;
59207;SDS011;44977;53.132;6.408;2022-09-21T01:52:21;7.22;;;3.60;;
59207;SDS011;44977;53.132;6.408;2022-09-21T01:57:33;6.70;;;3.20;;
59207;SDS011;44977;53.132;6.408;2022-09-21T02:02:52;8.07;;;2.95;;
59207;SDS011;44977;53.132;6.408;2022-09-21T02:07:57;7.65;;;3.50;;
59207;SDS011;44977;53.132;6.408;2022-09-21T02:13:00;7.18;;;3.15;;
59207;SDS011;44977;53.132;6.408;2022-09-21T02:18:07;6.43;;;3.00;;
59207;SDS011;44977;53.132;6.408;2022-09-21T02:23:33;8.00;;;3.15;;
59207;SDS011;44977;53.132;6.408;2022-09-21T02:28:47;6.65;;;2.72;;
59207;SDS011;44977;53.132;6.408;2022-09-21T02:39:18;5.50;;;2.83;;
59207;SDS011;44977;53.132;6.408;2022-09-21T02:44:24;6.37;;;3.10;;
59207;SDS011;44977;53.132;6.408;2022-09-21T02:49:40;6.55;;;2.70;;
59207;SDS011;44977;53.132;6.408;2022-09-21T02:54:46;6.93;;;2.88;;
59207;SDS011;44977;53.132;6.408;2022-09-21T02:59:50;7.40;;;2.95;;
59207;SDS011;44977;53.132;6.408;2022-09-21T03:04:51;5.80;;;2.70;;
59207;SDS011;44977;53.132;6.408;2022-09-21T03:09:53;5.43;;;2.67;;
59207;SDS011;44977;53.132;6.408;2022-09-21T03:14:53;6.03;;;2.60;;
59207;SDS011;44977;53.132;6.408;2022-09-21T03:19:55;6.43;;;2.80;;
59207;SDS011;44977;53.132;6.408;2022-09-21T03:24:55;5.03;;;2.33;;
59207;SDS011;44977;53.132;6.408;2022-09-21T03:29:56;5.15;;;2.60;;
59207;SDS011;44977;53.132;6.408;2022-09-21T03:34:57;5.82;;;2.67;;
59207;SDS011;44977;53.132;6.408;2022-09-21T03:39:58;4.88;;;2.22;;
59207;SDS011;44977;53.132;6.408;2022-09-21T03:44:59;7.10;;;2.92;;
59207;SDS011;44977;53.132;6.408;2022-09-21T03:50:00;5.30;;;2.60;;
59207;SDS011;44977;53.132;6.408;2022-09-21T03:55:00;5.00;;;2.40;;
59207;SDS011;44977;53.132;6.408;2022-09-21T04:00:05;4.65;;;1.98;;
59207;SDS011;44977;53.132;6.408;2022-09-21T04:05:09;4.85;;;2.40;;
59207;SDS011;44977;53.132;6.408;2022-09-21T04:10:12;4.55;;;2.30;;
59207;SDS011;44977;53.132;6.408;2022-09-21T04:15:16;7.25;;;2.30;;
59207;SDS011;44977;53.132;6.408;2022-09-21T04:20:19;4.72;;;2.47;;
59207;SDS011;44977;53.132;6.408;2022-09-21T04:25:20;6.22;;;2.60;;
59207;SDS011;44977;53.132;6.408;2022-09-21T04:30:21;5.50;;;2.80;;
59207;SDS011;44977;53.132;6.408;2022-09-21T04:35:22;5.65;;;2.25;;
59207;SDS011;44977;53.132;6.408;2022-09-21T04:40:22;5.85;;;2.20;;
59207;SDS011;44977;53.132;6.408;2022-09-21T04:45:23;5.00;;;2.40;;
59207;SDS011;44977;53.132;6.408;2022-09-21T04:50:24;7.85;;;2.45;;
59207;SDS011;44977;53.132;6.408;2022-09-21T04:55:25;4.18;;;2.20;;
59207;SDS011;44977;53.132;6.408;2022-09-21T05:00:25;6.07;;;2.42;;
59207;SDS011;44977;53.132;6.408;2022-09-21T05:05:26;5.55;;;2.42;;
59207;SDS011;44977;53.132;6.408;2022-09-21T05:10:27;7.28;;;2.10;;
59207;SDS011;44977;53.132;6.408;2022-09-21T05:15:28;5.80;;;2.50;;
59207;SDS011;44977;53.132;6.408;2022-09-21T05:20:28;6.75;;;2.70;;
59207;SDS011;44977;53.132;6.408;2022-09-21T05:25:29;5.53;;;2.25;;
59207;SDS011;44977;53.132;6.408;2022-09-21T05:30:30;7.28;;;2.65;;
59207;SDS011;44977;53.132;6.408;2022-09-21T05:35:35;5.75;;;2.25;;
59207;SDS011;44977;53.132;6.408;2022-09-21T05:40:44;5.40;;;2.53;;
59207;SDS011;44977;53.132;6.408;2022-09-21T05:45:48;5.25;;;2.22;;
59207;SDS011;44977;53.132;6.408;2022-09-21T05:56:05;5.65;;;2.53;;
59207;SDS011;44977;53.132;6.408;2022-09-21T06:06:27;9.57;;;4.60;;
59207;SDS011;44977;53.132;6.408;2022-09-21T06:11:28;8.55;;;3.05;;
59207;SDS011;44977;53.132;6.408;2022-09-21T06:16:40;9.02;;;3.20;;
59207;SDS011;44977;53.132;6.408;2022-09-21T06:21:42;7.95;;;2.85;;
59207;SDS011;44977;53.132;6.408;2022-09-21T06:26:42;6.50;;;3.00;;
59207;SDS011;44977;53.132;6.408;2022-09-21T06:31:43;16.65;;;4.97;;
59207;SDS011;44977;53.132;6.408;2022-09-21T06:36:44;15.65;;;5.13;;
59207;SDS011;44977;53.132;6.408;2022-09-21T06:41:44;16.08;;;6.53;;
59207;SDS011;44977;53.132;6.408;2022-09-21T06:46:45;16.55;;;6.35;;
59207;SDS011;44977;53.132;6.408;2022-09-21T06:51:46;15.27;;;6.15;;
59207;SDS011;44977;53.132;6.408;2022-09-21T06:56:47;13.07;;;5.95;;
59207;SDS011;44977;53.132;6.408;2022-09-21T07:01:48;11.75;;;5.72;;
59207;SDS011;44977;53.132;6.408;2022-09-21T07:06:49;11.95;;;5.35;;
59207;SDS011;44977;53.132;6.408;2022-09-21T07:11:49;11.48;;;5.07;;
59207;SDS011;44977;53.132;6.408;2022-09-21T07:16:51;12.55;;;4.60;;
59207;SDS011;44977;53.132;6.408;2022-09-21T07:21:52;11.82;;;4.00;;
59207;SDS011;44977;53.132;6.408;2022-09-21T07:26:53;9.90;;;3.88;;
59207;SDS011;44977;53.132;6.408;2022-09-21T07:31:54;10.57;;;3.88;;
59207;SDS011;44977;53.132;6.408;2022-09-21T07:36:55;10.48;;;3.65;;
59207;SDS011;44977;53.132;6.408;2022-09-21T07:41:56;8.57;;;3.58;;
59207;SDS011;44977;53.132;6.408;2022-09-21T07:46:57;9.77;;;3.08;;
59207;SDS011;44977;53.132;6.408;2022-09-21T07:51:58;8.80;;;3.40;;
59207;SDS011;44977;53.132;6.408;2022-09-21T07:56:58;9.52;;;3.10;;
59207;SDS011;44977;53.132;6.408;2022-09-21T08:02:18;6.82;;;2.85;;
59207;SDS011;44977;53.132;6.408;2022-09-21T08:07:18;7.88;;;2.60;;
59207;SDS011;44977;53.132;6.408;2022-09-21T08:12:19;7.40;;;2.85;;
59207;SDS011;44977;53.132;6.408;2022-09-21T08:17:20;8.93;;;2.50;;
59207;SDS011;44977;53.132;6.408;2022-09-21T08:22:21;9.68;;;2.63;;
59207;SDS011;44977;53.132;6.408;2022-09-21T08:27:23;9.80;;;2.20;;
59207;SDS011;44977;53.132;6.408;2022-09-21T08:32:24;6.82;;;1.80;;
59207;SDS011;44977;53.132;6.408;2022-09-21T08:37:25;9.73;;;2.15;;
59207;SDS011;44977;53.132;6.408;2022-09-21T08:52:33;7.68;;;1.88;;
59207;SDS011;44977;53.132;6.408;2022-09-21T08:57:36;6.82;;;1.67;;
59207;SDS011;44977;53.132;6.408;2022-09-21T09:18:22;8.73;;;1.20;;
59207;SDS011;44977;53.132;6.408;2022-09-21T09:34:39;10.70;;;1.42;;
59207;SDS011;44977;53.132;6.408;2022-09-21T09:39:59;6.03;;;1.45;;
59207;SDS011;44977;53.132;6.408;2022-09-21T09:50:24;5.55;;;1.17;;
59207;SDS011;44977;53.132;6.408;2022-09-21T09:55:38;5.15;;;1.10;;
59207;SDS011;44977;53.132;6.408;2022-09-21T10:00:42;5.35;;;1.13;;
59207;SDS011;44977;53.132;6.408;2022-09-21T10:05:45;5.82;;;1.15;;
59207;SDS011;44977;53.132;6.408;2022-09-21T10:10:46;4.45;;;1.05;;
59207;SDS011;44977;53.132;6.408;2022-09-21T10:15:50;5.32;;;1.20;;
59207;SDS011;44977;53.132;6.408;2022-09-21T10:26:08;12.93;;;2.72;;
59207;SDS011;44977;53.132;6.408;2022-09-21T10:31:18;6.50;;;1.23;;
59207;SDS011;44977;53.132;6.408;2022-09-21T10:41:35;5.10;;;1.10;;
59207;SDS011;44977;53.132;6.408;2022-09-21T10:46:36;5.38;;;1.10;;
59207;SDS011;44977;53.132;6.408;2022-09-21T10:51:37;5.72;;;1.17;;
59207;SDS011;44977;53.132;6.408;2022-09-21T10:56:48;7.82;;;1.40;;
59207;SDS011;44977;53.132;6.408;2022-09-21T11:01:55;6.40;;;1.25;;
59207;SDS011;44977;53.132;6.408;2022-09-21T11:07:00;6.03;;;1.08;;
59207;SDS011;44977;53.132;6.408;2022-09-21T11:12:40;5.50;;;1.00;;
59207;SDS011;44977;53.132;6.408;2022-09-21T11:28:48;5.90;;;1.30;;
59207;SDS011;44977;53.132;6.408;2022-09-21T11:44:32;6.13;;;1.05;;
59207;SDS011;44977;53.132;6.408;2022-09-21T11:49:48;6.00;;;1.50;;
59207;SDS011;44977;53.132;6.408;2022-09-21T12:00:18;4.85;;;0.90;;
59207;SDS011;44977;53.132;6.408;2022-09-21T12:21:20;5.13;;;1.00;;
59207;SDS011;44977;53.132;6.408;2022-09-21T12:26:41;4.70;;;0.80;;
59207;SDS011;44977;53.132;6.408;2022-09-21T12:37:36;5.28;;;0.95;;
59207;SDS011;44977;53.132;6.408;2022-09-21T12:42:47;4.53;;;0.90;;
59207;SDS011;44977;53.132;6.408;2022-09-21T12:48:04;4.85;;;0.77;;
59207;SDS011;44977;53.132;6.408;2022-09-21T12:53:28;4.78;;;0.80;;
59207;SDS011;44977;53.132;6.408;2022-09-21T13:09:17;4.50;;;0.80;;
59207;SDS011;44977;53.132;6.408;2022-09-21T13:14:19;6.45;;;0.90;;
59207;SDS011;44977;53.132;6.408;2022-09-21T13:19:24;4.88;;;1.10;;
59207;SDS011;44977;53.132;6.408;2022-09-21T13:24:27;4.55;;;0.85;;
59207;SDS011;44977;53.132;6.408;2022-09-21T13:29:30;4.93;;;1.02;;
59207;SDS011;44977;53.132;6.408;2022-09-21T13:34:36;5.17;;;0.90;;
59207;SDS011;44977;53.132;6.408;2022-09-21T13:39:47;5.50;;;0.88;;
59207;SDS011;44977;53.132;6.408;2022-09-21T13:44:49;5.55;;;0.90;;
59207;SDS011;44977;53.132;6.408;2022-09-21T13:49:50;2.55;;;0.70;;
59207;SDS011;44977;53.132;6.408;2022-09-21T13:54:56;4.63;;;0.90;;
59207;SDS011;44977;53.132;6.408;2022-09-21T14:00:04;3.25;;;0.73;;
59207;SDS011;44977;53.132;6.408;2022-09-21T14:10:34;3.78;;;0.82;;
59207;SDS011;44977;53.132;6.408;2022-09-21T14:15:37;2.35;;;0.60;;
59207;SDS011;44977;53.132;6.408;2022-09-21T14:20:38;3.47;;;0.70;;
59207;SDS011;44977;53.132;6.408;2022-09-21T14:25:46;5.43;;;1.00;;
59207;SDS011;44977;53.132;6.408;2022-09-21T14:30:54;4.50;;;0.77;;
59207;SDS011;44977;53.132;6.408;2022-09-21T14:35:57;3.70;;;1.00;;
59207;SDS011;44977;53.132;6.408;2022-09-21T14:41:02;4.65;;;1.00;;
59207;SDS011;44977;53.132;6.408;2022-09-21T14:51:48;4.57;;;0.95;;
59207;SDS011;44977;53.132;6.408;2022-09-21T15:18:40;8.00;;;1.67;;
59207;SDS011;44977;53.132;6.408;2022-09-21T15:23:41;2.85;;;0.90;;
59207;SDS011;44977;53.132;6.408;2022-09-21T15:28:43;4.55;;;0.90;;
59207;SDS011;44977;53.132;6.408;2022-09-21T15:33:50;3.33;;;0.77;;
59207;SDS011;44977;53.132;6.408;2022-09-21T15:38:52;4.30;;;0.90;;
59207;SDS011;44977;53.132;6.408;2022-09-21T15:49:14;4.32;;;0.90;;
59207;SDS011;44977;53.132;6.408;2022-09-21T15:59:21;5.07;;;0.95;;
59207;SDS011;44977;53.132;6.408;2022-09-21T16:04:23;5.78;;;0.95;;
59207;SDS011;44977;53.132;6.408;2022-09-21T16:09:26;3.70;;;0.90;;
59207;SDS011;44977;53.132;6.408;2022-09-21T16:14:36;5.18;;;1.00;;
59207;SDS011;44977;53.132;6.408;2022-09-21T16:24:57;4.72;;;0.93;;
59207;SDS011;44977;53.132;6.408;2022-09-21T16:29:59;4.18;;;0.90;;
59207;SDS011;44977;53.132;6.408;2022-09-21T16:40:28;3.80;;;1.00;;
59207;SDS011;44977;53.132;6.408;2022-09-21T16:45:29;5.50;;;1.08;;
59207;SDS011;44977;53.132;6.408;2022-09-21T16:50:30;4.63;;;1.10;;
59207;SDS011;44977;53.132;6.408;2022-09-21T16:55:31;7.15;;;1.50;;
59207;SDS011;44977;53.132;6.408;2022-09-21T17:00:35;7.20;;;2.65;;
59207;SDS011;44977;53.132;6.408;2022-09-21T17:05:39;7.78;;;2.50;;
59207;SDS011;44977;53.132;6.408;2022-09-21T17:10:40;6.00;;;1.48;;
59207;SDS011;44977;53.132;6.408;2022-09-21T17:15:44;8.40;;;1.38;;
59207;SDS011;44977;53.132;6.408;2022-09-21T17:20:47;5.88;;;1.30;;
59207;SDS011;44977;53.132;6.408;2022-09-21T17:25:48;6.85;;;1.30;;
59207;SDS011;44977;53.132;6.408;2022-09-21T17:30:49;3.63;;;1.10;;
59207;SDS011;44977;53.132;6.408;2022-09-21T17:35:50;4.80;;;1.20;;
59207;SDS011;44977;53.132;6.408;2022-09-21T17:40:52;5.38;;;1.33;;
59207;SDS011;44977;53.132;6.408;2022-09-21T17:51:32;6.32;;;1.45;;
59207;SDS011;44977;53.132;6.408;2022-09-21T18:02:15;5.63;;;1.40;;
59207;SDS011;44977;53.132;6.408;2022-09-21T18:07:21;6.38;;;1.38;;
59207;SDS011;44977;53.132;6.408;2022-09-21T18:12:45;7.97;;;1.67;;
59207;SDS011;44977;53.132;6.408;2022-09-21T18:18:02;7.65;;;1.80;;
59207;SDS011;44977;53.132;6.408;2022-09-21T18:28:38;7.15;;;1.92;;
59207;SDS011;44977;53.132;6.408;2022-09-21T18:33:47;8.98;;;2.10;;
59207;SDS011;44977;53.132;6.408;2022-09-21T18:39:17;7.70;;;2.20;;
59207;SDS011;44977;53.132;6.408;2022-09-21T18:44:38;8.65;;;2.72;;
59207;SDS011;44977;53.132;6.408;2022-09-21T18:50:03;7.35;;;2.35;;
59207;SDS011;44977;53.132;6.408;2022-09-21T19:00:27;6.75;;;1.90;;
59207;SDS011;44977;53.132;6.408;2022-09-21T19:05:34;7.00;;;2.00;;
59207;SDS011;44977;53.132;6.408;2022-09-21T19:11:00;8.38;;;2.30;;
59207;SDS011;44977;53.132;6.408;2022-09-21T19:21:24;11.52;;;2.58;;
59207;SDS011;44977;53.132;6.408;2022-09-21T19:26:41;6.53;;;2.33;;
59207;SDS011;44977;53.132;6.408;2022-09-21T19:31:49;8.98;;;2.88;;
59207;SDS011;44977;53.132;6.408;2022-09-21T19:36:51;8.27;;;2.88;;
59207;SDS011;44977;53.132;6.408;2022-09-21T19:42:06;6.32;;;2.40;;
59207;SDS011;44977;53.132;6.408;2022-09-21T19:52:33;8.75;;;3.40;;
59207;SDS011;44977;53.132;6.408;2022-09-21T19:57:35;8.98;;;4.05;;
59207;SDS011;44977;53.132;6.408;2022-09-21T20:03:00;9.55;;;4.60;;
59207;SDS011;44977;53.132;6.408;2022-09-21T20:08:12;9.32;;;3.95;;
59207;SDS011;44977;53.132;6.408;2022-09-21T20:24:19;9.20;;;4.20;;
59207;SDS011;44977;53.132;6.408;2022-09-21T20:29:25;8.60;;;3.75;;
59207;SDS011;44977;53.132;6.408;2022-09-21T20:34:25;8.50;;;3.97;;
59207;SDS011;44977;53.132;6.408;2022-09-21T20:39:26;9.52;;;4.00;;
59207;SDS011;44977;53.132;6.408;2022-09-21T20:44:27;9.02;;;3.85;;
59207;SDS011;44977;53.132;6.408;2022-09-21T20:49:28;8.90;;;4.30;;
59207;SDS011;44977;53.132;6.408;2022-09-21T20:54:28;9.25;;;4.15;;
59207;SDS011;44977;53.132;6.408;2022-09-21T20:59:29;8.75;;;4.20;;
59207;SDS011;44977;53.132;6.408;2022-09-21T21:04:30;9.13;;;4.10;;
59207;SDS011;44977;53.132;6.408;2022-09-21T21:09:31;8.40;;;4.20;;
59207;SDS011;44977;53.132;6.408;2022-09-21T21:14:32;8.55;;;4.63;;
59207;SDS011;44977;53.132;6.408;2022-09-21T21:19:33;8.88;;;4.40;;
59207;SDS011;44977;53.132;6.408;2022-09-21T21:24:33;8.32;;;4.07;;
59207;SDS011;44977;53.132;6.408;2022-09-21T21:29:41;9.13;;;3.85;;
59207;SDS011;44977;53.132;6.408;2022-09-21T21:34:43;7.93;;;4.18;;
59207;SDS011;44977;53.132;6.408;2022-09-21T21:39:44;9.35;;;4.40;;
59207;SDS011;44977;53.132;6.408;2022-09-21T21:44:45;8.95;;;4.57;;
59207;SDS011;44977;53.132;6.408;2022-09-21T21:49:46;7.95;;;4.68;;
59207;SDS011;44977;53.132;6.408;2022-09-21T21:54:47;9.90;;;4.68;;
59207;SDS011;44977;53.132;6.408;2022-09-21T21:59:49;9.15;;;5.15;;
59207;SDS011;44977;53.132;6.408;2022-09-21T22:04:49;9.60;;;5.20;;
59207;SDS011;44977;53.132;6.408;2022-09-21T22:09:50;8.88;;;4.93;;
59207;SDS011;44977;53.132;6.408;2022-09-21T22:14:50;9.77;;;5.00;;
59207;SDS011;44977;53.132;6.408;2022-09-21T22:19:51;9.18;;;5.30;;
59207;SDS011;44977;53.132;6.408;2022-09-21T22:24:53;9.20;;;4.82;;
59207;SDS011;44977;53.132;6.408;2022-09-21T22:29:53;9.35;;;4.80;;
59207;SDS011;44977;53.132;6.408;2022-09-21T22:34:54;9.38;;;4.88;;
59207;SDS011;44977;53.132;6.408;2022-09-21T22:39:54;8.02;;;4.38;;
59207;SDS011;44977;53.132;6.408;2022-09-21T22:44:55;8.68;;;4.65;;
59207;SDS011;44977;53.132;6.408;2022-09-21T22:49:56;9.90;;;5.15;;
59207;SDS011;44977;53.132;6.408;2022-09-21T22:54:56;8.63;;;5.43;;
59207;SDS011;44977;53.132;6.408;2022-09-21T22:59:57;8.23;;;5.10;;
59207;SDS011;44977;53.132;6.408;2022-09-21T23:04:58;8.93;;;4.68;;
59207;SDS011;44977;53.132;6.408;2022-09-21T23:09:59;9.07;;;5.28;;
59207;SDS011;44977;53.132;6.408;2022-09-21T23:14:59;7.63;;;4.53;;
59207;SDS011;44977;53.132;6.408;2022-09-21T23:20:01;6.32;;;3.42;;
59207;SDS011;44977;53.132;6.408;2022-09-21T23:25:02;10.07;;;4.38;;
59207;SDS011;44977;53.132;6.408;2022-09-21T23:30:03;6.65;;;3.38;;
59207;SDS011;44977;53.132;6.408;2022-09-21T23:35:04;7.30;;;3.10;;
59207;SDS011;44977;53.132;6.408;2022-09-21T23:40:05;6.50;;;3.10;;
59207;SDS011;44977;53.132;6.408;2022-09-21T23:45:06;6.32;;;2.75;;
59207;SDS011;44977;53.132;6.408;2022-09-21T23:50:07;6.25;;;3.10;;
59207;SDS011;44977;53.132;6.408;2022-09-21T23:55:08;6.20;;;2.88;;
